Yarm, United Kingdom
Current Conditions -  °F | °C
As of 2:20 PM on Wednesday 28 Jan 2015 (Local Time) from EGNV Reporting Station
Scattered Clouds Scattered Clouds  
Wind Chill: 26°   Ceiling: Unl
Heat Index: 37°   Visibility: 6mi
Dew Point: 32°   Wind: 25mph
Humidity: 81%   Direction: 260°W
Pressure: 29.29"   Gusts: NA
Location:  54.45°N, 1.34°W
Report Text: EGNV 281420Z 26022KT 9999 FEW012CB SCT019 03/M00 Q0992
Loading
Personal Weather Stations






























Interactive Weather Map New forecast layout! Learn more

10-Day Weather Forecast

Advertisements
Track Severe Weather on mobile